Time;durP1;ratioP1;P1;durP2;ratioP2;P2;SDS_P1;SDS_P2;PMS_P1;PMS_P2;Temp;Humidity;BMP_temperature;BMP_pressure;BME280_temperature;BME280_humidity;BME280_pressure;Samples;Min_cycle;Max_cycle;Signal;HPM_P1;HPM_P2
2020/12/31 00:00:09;;;;;;;18.73;10.40;;;;;;;3.52;79.23;99649.88;5060702;28;20228;-65
2020/12/31 00:02:35;;;;;;;13.53;10.33;;;;;;;3.51;79.88;99655.22;5060280;28;20215;-65
2020/12/31 00:05:01;;;;;;;18.30;11.37;;;;;;;3.47;79.62;99654.53;5059499;28;20206;-65
2020/12/31 00:07:28;;;;;;;18.23;12.80;;;;;;;3.42;79.25;99652.09;5060254;28;20205;-64
2020/12/31 00:09:54;;;;;;;16.17;10.83;;;;;;;3.41;78.75;99654.81;5065623;28;21645;-65
2020/12/31 00:12:20;;;;;;;16.10;10.80;;;;;;;3.38;79.39;99655.84;5060014;28;20206;-64
2020/12/31 00:14:46;;;;;;;19.73;11.90;;;;;;;3.35;78.56;99650.72;5066372;28;20697;-65
2020/12/31 00:17:12;;;;;;;19.93;10.90;;;;;;;3.30;78.42;99647.47;5061627;28;20221;-65
2020/12/31 00:19:38;;;;;;;17.07;10.67;;;;;;;3.29;78.83;99650.16;5065443;28;20227;-65
2020/12/31 00:22:04;;;;;;;15.40;10.47;;;;;;;3.26;78.40;99650.31;5066655;28;20197;-65
2020/12/31 00:24:31;;;;;;;17.63;11.90;;;;;;;3.23;78.25;99651.31;5061081;28;20634;-65
2020/12/31 00:26:57;;;;;;;17.30;11.17;;;;;;;3.19;78.77;99655.03;5063614;28;20239;-65
2020/12/31 00:29:23;;;;;;;12.83;10.57;;;;;;;3.18;78.92;99652.50;5065435;28;20229;-65
2020/12/31 00:31:49;;;;;;;11.90;9.43;;;;;;;3.16;78.26;99655.19;5058415;28;20205;-65
2020/12/31 00:34:16;;;;;;;18.23;11.23;;;;;;;3.12;77.65;99658.91;5061076;28;20271;-65
2020/12/31 00:36:42;;;;;;;14.07;10.70;;;;;;;3.09;78.53;99653.78;5055853;28;20296;-65
2020/12/31 00:39:08;;;;;;;15.27;10.93;;;;;;;3.06;77.99;99665.28;5062086;28;20228;-65
2020/12/31 00:41:35;;;;;;;17.07;11.27;;;;;;;3.04;78.05;99666.31;5059849;28;20209;-65
2020/12/31 00:44:01;;;;;;;15.03;10.33;;;;;;;3.02;78.03;99663.75;5064633;28;20291;-65
2020/12/31 00:46:27;;;;;;;13.97;10.10;;;;;;;3.00;77.57;99665.59;5072756;28;20210;-65
2020/12/31 00:48:53;;;;;;;11.63;8.73;;;;;;;2.99;78.11;99668.31;5071477;28;20253;-64
2020/12/31 00:51:20;;;;;;;13.13;9.10;;;;;;;2.96;77.48;99664.03;5074440;28;20201;-65
2020/12/31 00:53:46;;;;;;;17.50;10.57;;;;;;;2.96;77.84;99665.81;5060213;28;20855;-64
2020/12/31 00:56:12;;;;;;;12.27;9.00;;;;;;;2.95;78.41;99666.75;5081411;28;20685;-65
2020/12/31 00:58:39;;;;;;;13.03;9.30;;;;;;;2.95;77.97;99664.13;5075638;28;20205;-64
2020/12/31 01:01:05;;;;;;;11.77;8.50;;;;;;;2.93;78.16;99669.44;5070391;28;20274;-64
2020/12/31 01:03:31;;;;;;;13.33;9.10;;;;;;;2.92;78.31;99665.09;5071466;28;20227;-64
2020/12/31 01:05:57;;;;;;;11.47;8.53;;;;;;;2.93;78.31;99663.34;5072958;28;20208;-64
2020/12/31 01:08:26;;;;;;;13.33;8.93;;;;;;;2.90;78.18;99669.59;5074042;28;20209;-65
2020/12/31 01:10:52;;;;;;;10.63;7.60;;;;;;;2.89;77.71;99669.66;5077983;28;20230;-64
2020/12/31 01:13:18;;;;;;;13.00;7.83;;;;;;;2.87;78.31;99669.72;5074414;28;20236;-64
2020/12/31 01:15:45;;;;;;;11.47;8.67;;;;;;;2.87;78.33;99667.09;5072555;28;20205;-64
2020/12/31 01:18:11;;;;;;;11.80;8.03;;;;;;;2.86;78.44;99675.94;5070886;28;20209;-65
2020/12/31 01:20:39;;;;;;;10.27;7.17;;;;;;;2.84;78.32;99679.56;5065592;28;20229;-65
2020/12/31 01:23:05;;;;;;;11.00;7.90;;;;;;;2.82;78.41;99671.75;5075360;28;20209;-65
2020/12/31 01:25:31;;;;;;;10.20;7.77;;;;;;;2.81;77.57;99675.28;5072507;28;20287;-65
2020/12/31 01:27:57;;;;;;;10.23;7.13;;;;;;;2.79;77.66;99680.63;5071226;28;20273;-65
2020/12/31 01:30:24;;;;;;;10.60;7.40;;;;;;;2.77;78.14;99677.22;5067042;28;20229;-65
2020/12/31 01:32:51;;;;;;;9.03;7.23;;;;;;;2.75;77.66;99676.44;5072804;28;20288;-65
2020/12/31 01:35:17;;;;;;;11.50;7.23;;;;;;;2.73;78.14;99677.41;5070051;28;20228;-65
2020/12/31 01:37:43;;;;;;;14.93;7.97;;;;;;;2.72;77.99;99671.31;5070747;28;20237;-65
2020/12/31 01:40:09;;;;;;;11.93;7.67;;;;;;;2.70;78.36;99670.53;5071762;28;20225;-64
2020/12/31 01:42:35;;;;;;;11.00;6.93;;;;;;;2.69;78.55;99673.22;5072155;28;20651;-64
2020/12/31 01:45:01;;;;;;;8.40;7.10;;;;;;;2.67;77.52;99670.69;5072262;28;20201;-65
2020/12/31 01:47:27;;;;;;;11.03;7.60;;;;;;;2.67;77.48;99673.31;5069615;28;20215;-65
2020/12/31 01:49:54;;;;;;;9.90;7.70;;;;;;;2.67;77.90;99675.09;5071559;28;20224;-65
2020/12/31 01:52:20;;;;;;;8.87;6.97;;;;;;;2.66;77.48;99676.88;5069026;28;20580;-65
2020/12/31 01:54:47;;;;;;;9.00;7.03;;;;;;;2.65;78.09;99675.16;5070077;28;20817;-65
2020/12/31 01:57:14;;;;;;;8.73;6.67;;;;;;;2.64;78.24;99675.22;5082554;28;20586;-66
2020/12/31 01:59:40;;;;;;;10.33;7.20;;;;;;;2.63;78.29;99669.13;5073796;28;20638;-65
2020/12/31 02:02:07;;;;;;;9.77;6.93;;;;;;;2.62;77.31;99675.31;5071674;28;20241;-66
2020/12/31 02:04:34;;;;;;;11.27;8.17;;;;;;;2.61;77.65;99673.59;5064917;28;20198;-65
2020/12/31 02:07:02;;;;;;;11.70;8.67;;;;;;;2.62;77.54;99674.44;5072850;28;20296;-66
2020/12/31 02:09:29;;;;;;;10.60;7.77;;;;;;;2.60;78.14;99664.00;5067479;28;20326;-65
2020/12/31 02:11:55;;;;;;;10.33;7.60;;;;;;;2.60;78.18;99674.53;5058465;28;20657;-65
2020/12/31 02:14:21;;;;;;;9.93;7.60;;;;;;;2.58;77.96;99673.72;5062695;28;20708;-65
2020/12/31 02:16:47;;;;;;;10.17;7.63;;;;;;;2.56;77.61;99670.31;5069555;28;20713;-62
2020/12/31 02:19:15;;;;;;;11.47;7.33;;;;;;;2.53;77.69;99665.19;5071740;28;20213;-65
2020/12/31 02:21:45;;;;;;;11.30;7.87;;;;;;;2.51;77.73;99667.03;5072791;28;20582;-65
2020/12/31 02:24:12;;;;;;;9.90;7.60;;;;;;;2.49;78.29;99658.41;5071989;28;20205;-65
2020/12/31 02:26:39;;;;;;;9.70;7.33;;;;;;;2.49;77.37;99670.69;5072080;28;20269;-65
2020/12/31 02:29:08;;;;;;;10.33;8.23;;;;;;;2.46;77.74;99671.69;5071714;28;20225;-64
2020/12/31 02:31:34;;;;;;;11.40;8.23;;;;;;;2.44;78.18;99673.53;5069502;28;20209;-65
2020/12/31 02:34:02;;;;;;;9.80;7.63;;;;;;;2.43;77.88;99670.03;5070448;28;20221;-66
2020/12/31 02:36:31;;;;;;;10.43;7.53;;;;;;;2.41;77.97;99671.88;5072000;28;20201;-65
2020/12/31 02:38:59;;;;;;;8.37;6.87;;;;;;;2.39;77.36;99672.88;5057339;28;20212;-64
2020/12/31 02:41:25;;;;;;;10.73;7.07;;;;;;;2.35;77.84;99669.53;5070313;28;20285;-65
2020/12/31 02:43:51;;;;;;;9.40;7.20;;;;;;;2.31;78.03;99670.59;5069385;28;20564;-66
2020/12/31 02:46:20;;;;;;;8.10;6.43;;;;;;;2.28;77.42;99667.25;5071557;28;20246;-65
2020/12/31 02:48:47;;;;;;;8.80;7.00;;;;;;;2.22;77.89;99670.16;5059543;28;20209;-63
2020/12/31 02:51:13;;;;;;;8.43;7.07;;;;;;;2.17;77.39;99672.97;5067465;28;20325;-65
2020/12/31 02:53:40;;;;;;;9.27;7.20;;;;;;;2.13;77.48;99670.56;5071373;28;20229;-65
2020/12/31 02:56:11;;;;;;;8.50;6.53;;;;;;;2.09;77.46;99672.47;5067584;28;20243;-63
2020/12/31 02:58:37;;;;;;;11.37;7.47;;;;;;;2.04;77.75;99672.66;5061900;28;20651;-63
2020/12/31 03:01:03;;;;;;;9.03;7.17;;;;;;;2.01;77.27;99672.81;5072165;28;20224;-63
2020/12/31 03:03:29;;;;;;;8.27;6.30;;;;;;;2.00;77.43;99672.88;5070288;28;20208;-63
2020/12/31 03:05:56;;;;;;;7.33;6.10;;;;;;;1.95;77.67;99673.09;5071011;28;20741;-63
2020/12/31 03:08:22;;;;;;;6.97;5.90;;;;;;;1.94;77.30;99673.16;5070773;28;20288;-63
2020/12/31 03:10:48;;;;;;;7.33;6.10;;;;;;;1.90;77.28;99664.56;5069763;28;20357;-63
2020/12/31 03:13:15;;;;;;;7.77;5.53;;;;;;;1.88;77.48;99665.53;5070762;28;20207;-63
2020/12/31 03:15:41;;;;;;;6.97;5.40;;;;;;;1.87;77.62;99666.47;5069909;28;20201;-63
2020/12/31 03:18:07;;;;;;;6.20;4.83;;;;;;;1.84;77.80;99659.56;5070778;28;20311;-65
2020/12/31 03:20:33;;;;;;;5.60;5.00;;;;;;;1.83;77.61;99660.47;5066517;28;20611;-63
2020/12/31 03:22:59;;;;;;;5.43;4.47;;;;;;;1.82;77.59;99658.78;5064380;28;20201;-63
2020/12/31 03:25:25;;;;;;;5.50;4.50;;;;;;;1.82;78.11;99656.16;5068036;28;20235;-65
2020/12/31 03:27:51;;;;;;;5.90;4.70;;;;;;;1.82;77.38;99650.03;5058072;28;20206;-63
2020/12/31 03:30:18;;;;;;;4.93;4.27;;;;;;;1.83;77.66;99649.13;5068513;28;20232;-63
2020/12/31 03:32:44;;;;;;;6.33;4.33;;;;;;;1.84;77.64;99649.06;5069883;28;20597;-63
2020/12/31 03:35:10;;;;;;;7.30;4.70;;;;;;;1.86;78.00;99646.38;5069229;28;20743;-63
2020/12/31 03:37:36;;;;;;;5.87;4.50;;;;;;;1.87;77.82;99645.44;5070878;28;20211;-63
2020/12/31 03:40:03;;;;;;;6.67;4.13;;;;;;;1.89;78.01;99646.25;5069125;28;20225;-63
2020/12/31 03:42:29;;;;;;;5.87;4.13;;;;;;;1.89;77.63;99647.09;5072965;28;20205;-64
2020/12/31 03:44:55;;;;;;;5.93;4.40;;;;;;;1.89;77.75;99641.84;5074019;28;20197;-63
2020/12/31 03:47:22;;;;;;;5.67;4.03;;;;;;;1.88;77.53;99634.88;5072515;28;20281;-64
2020/12/31 03:49:50;;;;;;;6.17;4.33;;;;;;;1.88;77.89;99634.03;5074293;28;20220;-64
2020/12/31 03:52:16;;;;;;;4.53;3.90;;;;;;;1.88;77.63;99634.88;5073158;28;20201;-64
2020/12/31 03:54:42;;;;;;;6.90;4.23;;;;;;;1.87;77.90;99630.56;5074405;28;20714;-64
2020/12/31 03:57:08;;;;;;;5.93;4.10;;;;;;;1.88;77.86;99631.41;5072660;28;20335;-63
2020/12/31 03:59:34;;;;;;;5.80;4.37;;;;;;;1.87;77.86;99630.56;5073752;28;20281;-64
2020/12/31 04:02:00;;;;;;;7.83;4.27;;;;;;;1.86;78.00;99625.38;5068975;28;20209;-64
2020/12/31 04:04:27;;;;;;;5.37;4.37;;;;;;;1.85;77.83;99626.28;5063907;28;20201;-64
2020/12/31 04:06:53;;;;;;;4.43;3.70;;;;;;;1.85;77.96;99618.41;5072779;28;20216;-64
2020/12/31 04:09:19;;;;;;;6.70;4.00;;;;;;;1.86;78.09;99628.84;5074372;28;20581;-64
2020/12/31 04:11:45;;;;;;;5.47;3.80;;;;;;;1.86;77.61;99622.75;5069474;28;20289;-64
2020/12/31 04:14:11;;;;;;;5.90;3.80;;;;;;;1.86;78.19;99614.88;5073821;28;20221;-64
2020/12/31 04:16:37;;;;;;;5.93;4.17;;;;;;;1.85;77.26;99616.63;5074148;28;20209;-64
2020/12/31 04:19:03;;;;;;;5.70;4.00;;;;;;;1.87;77.80;99616.56;5075152;28;20201;-64
2020/12/31 04:21:30;;;;;;;6.47;4.23;;;;;;;1.87;77.78;99630.56;5072535;28;20201;-64
2020/12/31 04:23:56;;;;;;;6.10;4.07;;;;;;;1.88;77.54;99632.25;5063115;28;20196;-64
2020/12/31 04:26:22;;;;;;;5.63;4.27;;;;;;;1.89;77.88;99631.34;5073813;28;20288;-64
2020/12/31 04:28:48;;;;;;;5.70;4.60;;;;;;;1.91;78.20;99629.50;5073675;28;20205;-64
2020/12/31 04:31:14;;;;;;;5.57;4.30;;;;;;;1.91;77.27;99624.25;5074334;28;20324;-65
2020/12/31 04:33:40;;;;;;;5.53;3.90;;;;;;;1.92;77.95;99614.59;5072850;28;20227;-64
2020/12/31 04:36:06;;;;;;;7.07;4.83;;;;;;;1.91;77.34;99615.53;5073335;28;20290;-64
2020/12/31 04:38:33;;;;;;;4.83;3.87;;;;;;;1.91;77.27;99616.38;5072575;28;21963;-65
2020/12/31 04:41:01;;;;;;;4.70;4.07;;;;;;;1.91;77.48;99616.38;5073532;28;20712;-64
2020/12/31 04:43:27;;;;;;;6.30;4.50;;;;;;;1.91;78.00;99618.16;5065550;28;20554;-64
2020/12/31 04:45:55;;;;;;;4.73;4.07;;;;;;;1.91;77.85;99621.63;5066841;28;20585;-64
2020/12/31 04:48:27;;;;;;;5.53;4.00;;;;;;;1.90;77.58;99613.81;5075398;28;20292;-66
2020/12/31 04:50:56;;;;;;;4.93;4.03;;;;;;;1.91;77.73;99613.75;5065594;28;20327;-64
2020/12/31 04:53:23;;;;;;;6.40;4.63;;;;;;;1.90;78.07;99606.78;5071551;28;20266;-64
2020/12/31 04:55:50;;;;;;;5.50;4.37;;;;;;;1.90;78.03;99619.06;5073123;28;20224;-64
2020/12/31 04:58:16;;;;;;;5.93;4.33;;;;;;;1.88;78.20;99627.00;5072041;28;20622;-61
2020/12/31 05:00:44;;;;;;;6.60;4.67;;;;;;;1.87;77.63;99622.69;5073188;28;20221;-64
2020/12/31 05:03:10;;;;;;;7.23;4.87;;;;;;;1.86;77.66;99620.97;5072213;28;20201;-64
2020/12/31 05:05:37;;;;;;;7.20;4.83;;;;;;;1.86;78.06;99618.34;5071099;28;20201;-64
2020/12/31 05:08:04;;;;;;;5.60;4.27;;;;;;;1.86;77.71;99618.34;5073553;28;20250;-64
2020/12/31 05:10:31;;;;;;;7.80;4.80;;;;;;;1.87;77.86;99627.06;5071127;28;20702;-64
2020/12/31 05:12:59;;;;;;;6.23;4.60;;;;;;;1.86;77.99;99618.34;5066535;28;20247;-65
2020/12/31 05:15:36;;;;;;;7.07;4.73;;;;;;;1.88;78.21;99626.16;5072569;28;20574;-64
2020/12/31 05:18:19;;;;;;;6.27;4.90;;;;;;;1.88;78.20;99628.78;5071188;28;20581;-63
2020/12/31 05:20:47;;;;;;;9.17;5.20;;;;;;;1.89;77.59;99633.97;5068808;28;20595;-65
2020/12/31 05:23:14;;;;;;;8.40;5.37;;;;;;;1.89;77.76;99631.34;5070232;28;20716;-64
2020/12/31 05:25:40;;;;;;;7.17;5.10;;;;;;;1.90;78.34;99637.44;5072810;28;20201;-64
2020/12/31 05:28:23;;;;;;;6.93;4.97;;;;;;;1.91;77.87;99633.91;5071370;28;20677;-64
2020/12/31 05:30:50;;;;;;;7.20;4.93;;;;;;;1.91;78.44;99634.75;5061466;28;20285;-62
2020/12/31 05:33:24;;;;;;;7.90;5.43;;;;;;;1.95;77.77;99640.72;5068575;28;20205;-63
2020/12/31 05:35:50;;;;;;;7.53;5.33;;;;;;;1.96;78.46;99642.44;5072551;28;20229;-64
2020/12/31 05:38:19;;;;;;;7.60;5.20;;;;;;;1.99;77.89;99639.66;5071283;28;20639;-64
2020/12/31 05:40:57;;;;;;;7.77;5.47;;;;;;;2.01;77.75;99643.06;5077688;28;20232;-65
2020/12/31 05:43:24;;;;;;;7.67;5.13;;;;;;;2.02;78.67;99643.00;5075711;28;20649;-64
2020/12/31 05:46:03;;;;;;;7.60;5.33;;;;;;;2.05;78.50;99649.88;5071804;28;20203;-65
2020/12/31 05:48:29;;;;;;;7.77;5.77;;;;;;;2.07;77.78;99645.44;5071750;28;20204;-64
2020/12/31 05:50:55;;;;;;;8.03;5.87;;;;;;;2.06;78.51;99649.81;5072218;28;20225;-64
2020/12/31 05:53:23;;;;;;;8.37;5.60;;;;;;;2.06;78.06;99641.09;5069805;28;20215;-63
2020/12/31 05:55:54;;;;;;;8.30;6.47;;;;;;;2.07;78.61;99642.81;5071771;28;20224;-63
2020/12/31 05:58:23;;;;;;;6.57;4.93;;;;;;;2.06;77.65;99644.56;5056360;28;20259;-63
2020/12/31 06:01:01;;;;;;;8.03;5.57;;;;;;;2.06;77.95;99647.19;5072833;28;20564;-66
2020/12/31 06:03:35;;;;;;;8.03;6.63;;;;;;;2.06;77.69;99644.56;5070157;28;20213;-64
2020/12/31 06:06:04;;;;;;;7.63;6.00;;;;;;;2.06;77.89;99655.06;5070701;28;20197;-65
2020/12/31 06:08:31;;;;;;;8.87;6.13;;;;;;;2.07;77.92;99642.81;5069653;28;20205;-64
2020/12/31 06:11:02;;;;;;;7.90;6.67;;;;;;;2.05;78.18;99635.00;5070455;28;20225;-65
2020/12/31 06:13:38;;;;;;;10.77;6.40;;;;;;;2.04;78.29;99643.78;5065449;28;20287;-64
2020/12/31 06:16:05;;;;;;;7.47;6.03;;;;;;;2.05;78.00;99650.75;5065492;28;20249;-65
2020/12/31 06:18:33;;;;;;;8.60;7.07;;;;;;;2.03;78.11;99649.97;5071735;28;20208;-65
2020/12/31 06:21:02;;;;;;;8.23;5.90;;;;;;;2.04;78.50;99638.53;5069952;28;20263;-63
2020/12/31 06:23:37;;;;;;;9.33;6.23;;;;;;;2.02;78.84;99648.25;5070459;28;20200;-65
2020/12/31 06:26:12;;;;;;;8.60;6.10;;;;;;;2.03;78.58;99636.81;5071519;28;20216;-65
2020/12/31 06:28:44;;;;;;;7.60;5.83;;;;;;;2.04;78.38;99641.16;5069287;28;20212;-65
2020/12/31 06:31:11;;;;;;;8.43;5.70;;;;;;;2.05;78.27;99637.63;5070499;28;20228;-64
2020/12/31 06:33:42;;;;;;;7.53;6.20;;;;;;;2.06;78.51;99639.31;5062456;28;20602;-65
2020/12/31 06:36:08;;;;;;;8.53;6.23;;;;;;;2.06;78.28;99639.31;5064440;28;20295;-63
2020/12/31 06:38:36;;;;;;;8.77;7.17;;;;;;;2.08;78.75;99640.09;5070449;28;20587;-65
2020/12/31 06:41:04;;;;;;;8.23;6.00;;;;;;;2.09;78.84;99643.59;5062016;28;20600;-65
2020/12/31 06:43:35;;;;;;;8.37;6.53;;;;;;;2.09;78.42;99644.44;5070322;28;20205;-65
2020/12/31 06:46:13;;;;;;;8.70;6.07;;;;;;;2.09;78.40;99643.59;5071207;28;20287;-65
2020/12/31 06:48:40;;;;;;;9.13;6.80;;;;;;;2.08;78.64;99647.13;5063645;28;20204;-65
2020/12/31 06:51:08;;;;;;;8.33;6.37;;;;;;;2.09;78.68;99654.94;5072721;28;20221;-65
2020/12/31 06:53:36;;;;;;;10.07;6.60;;;;;;;2.07;78.49;99651.53;5068011;28;20290;-65
2020/12/31 06:56:03;;;;;;;7.87;5.97;;;;;;;2.09;77.96;99660.19;5080387;28;20224;-65
2020/12/31 06:58:30;;;;;;;8.07;6.30;;;;;;;2.09;78.40;99654.94;5072162;28;20211;-65
2020/12/31 07:00:57;;;;;;;8.87;6.77;;;;;;;2.09;78.29;99657.56;5069938;28;20224;-65
2020/12/31 07:03:47;;;;;;;8.60;6.27;;;;;;;2.09;78.54;99660.19;5069183;28;20212;-64
2020/12/31 07:06:30;;;;;;;8.57;6.70;;;;;;;2.10;78.59;99658.44;5065439;28;20351;-64
2020/12/31 07:08:59;;;;;;;10.67;6.60;;;;;;;2.10;78.41;99655.81;5059814;28;20201;-63
2020/12/31 07:11:29;;;;;;;9.57;7.13;;;;;;;2.12;78.33;99653.09;5056089;28;20201;-64
2020/12/31 07:13:55;;;;;;;9.63;6.80;;;;;;;2.12;78.74;99658.38;5063351;28;20708;-64
2020/12/31 07:16:45;;;;;;;9.27;6.97;;;;;;;2.13;78.45;99654.81;5064909;28;20753;-64
2020/12/31 07:19:12;;;;;;;10.90;7.20;;;;;;;2.13;78.16;99654.81;5057167;28;20731;-64
2020/12/31 07:21:38;;;;;;;9.63;6.67;;;;;;;2.14;78.36;99653.91;5055838;28;20208;-64
2020/12/31 07:24:24;;;;;;;9.33;7.17;;;;;;;2.16;78.44;99652.03;5067744;28;20200;-64
2020/12/31 07:26:51;;;;;;;10.57;7.60;;;;;;;2.19;78.35;99651.91;5072840;28;20214;-64
2020/12/31 07:29:29;;;;;;;8.37;7.20;;;;;;;2.18;78.82;99642.31;5077667;28;20289;-61
2020/12/31 07:31:55;;;;;;;9.07;6.30;;;;;;;2.20;77.86;99648.34;5068982;28;20200;-64
2020/12/31 07:34:23;;;;;;;8.77;7.27;;;;;;;2.21;78.15;99644.81;5068355;28;20228;-64
2020/12/31 07:37:06;;;;;;;9.73;6.60;;;;;;;2.22;78.56;99643.88;5068774;28;20197;-64
2020/12/31 07:39:33;;;;;;;8.57;7.50;;;;;;;2.22;78.31;99642.09;5061897;28;20236;-64
2020/12/31 07:42:12;;;;;;;8.60;7.07;;;;;;;2.24;78.61;99642.03;5066804;28;20205;-64
2020/12/31 07:44:53;;;;;;;8.60;6.57;;;;;;;2.25;78.22;99643.75;5065185;28;20662;-62
2020/12/31 07:47:21;;;;;;;9.77;6.53;;;;;;;2.26;78.04;99645.47;5058731;28;20208;-64
2020/12/31 07:49:49;;;;;;;8.40;6.80;;;;;;;2.26;77.81;99642.81;5061833;28;20289;-64
2020/12/31 07:52:16;;;;;;;8.03;6.47;;;;;;;2.28;78.03;99647.09;5059163;28;20203;-64
2020/12/31 07:54:42;;;;;;;9.63;6.40;;;;;;;2.29;77.85;99642.69;5070100;28;20700;-64
2020/12/31 07:57:12;;;;;;;7.87;5.93;;;;;;;2.29;78.47;99645.31;5053546;28;20208;-64
2020/12/31 07:59:45;;;;;;;9.13;6.73;;;;;;;2.32;78.50;99647.81;5069839;28;20311;-65
2020/12/31 08:02:14;;;;;;;9.37;6.63;;;;;;;2.34;78.22;99649.41;5056021;28;20204;-64
2020/12/31 08:04:40;;;;;;;8.60;6.90;;;;;;;2.35;78.42;99645.03;5070836;28;20715;-64
2020/12/31 08:07:15;;;;;;;8.07;6.60;;;;;;;2.38;77.83;99642.25;5066099;28;20197;-64
2020/12/31 08:09:43;;;;;;;8.57;6.43;;;;;;;2.40;77.92;99643.03;5062395;28;20238;-64
2020/12/31 08:12:12;;;;;;;7.53;6.50;;;;;;;2.42;77.67;99643.81;5057021;28;20208;-64
2020/12/31 08:14:42;;;;;;;8.87;7.53;;;;;;;2.45;77.51;99646.31;5059627;28;20224;-64
2020/12/31 08:17:09;;;;;;;8.17;6.60;;;;;;;2.46;77.55;99647.16;5067010;28;20204;-65
2020/12/31 08:19:36;;;;;;;7.67;6.00;;;;;;;2.48;77.96;99643.56;5072483;28;20225;-65
2020/12/31 08:22:10;;;;;;;7.70;6.87;;;;;;;2.50;77.13;99651.38;5065589;28;20197;-65
2020/12/31 08:24:43;;;;;;;9.87;7.40;;;;;;;2.53;77.13;99645.94;5054753;28;20198;-64
2020/12/31 08:27:11;;;;;;;7.87;6.13;;;;;;;2.53;77.85;99646.78;5057232;28;20213;-65
2020/12/31 08:29:38;;;;;;;10.17;7.50;;;;;;;2.54;77.41;99651.13;5066547;28;20256;-65
2020/12/31 08:32:05;;;;;;;9.30;6.93;;;;;;;2.55;77.07;99646.72;5060187;28;20209;-65
2020/12/31 08:34:36;;;;;;;9.17;7.03;;;;;;;2.57;77.89;99645.75;5062707;28;20221;-64
2020/12/31 08:37:02;;;;;;;9.17;7.10;;;;;;;2.58;77.13;99642.19;5071793;28;20200;-65
2020/12/31 08:39:29;;;;;;;9.73;7.13;;;;;;;2.61;77.65;99641.19;5062888;28;20231;-65
2020/12/31 08:41:58;;;;;;;7.80;6.67;;;;;;;2.63;77.55;99647.25;5058376;28;20209;-65
2020/12/31 08:44:26;;;;;;;8.57;6.63;;;;;;;2.65;76.95;99648.03;5064089;28;20205;-65
2020/12/31 08:46:52;;;;;;;7.03;5.90;;;;;;;2.65;77.30;99651.50;5066842;28;20193;-65
2020/12/31 08:49:25;;;;;;;10.67;8.23;;;;;;;2.68;77.33;99651.38;5072422;28;20225;-64
2020/12/31 08:51:51;;;;;;;11.60;8.50;;;;;;;2.71;76.53;99652.97;5061821;28;20210;-65
2020/12/31 08:54:18;;;;;;;9.93;7.60;;;;;;;2.73;76.71;99649.34;5060717;28;20283;-65
2020/12/31 08:56:44;;;;;;;10.10;7.63;;;;;;;2.74;77.08;99648.44;5064455;28;20212;-65
2020/12/31 08:59:13;;;;;;;15.47;11.07;;;;;;;2.75;76.32;99644.88;5053017;28;20208;-63
2020/12/31 09:01:41;;;;;;;9.97;7.90;;;;;;;2.76;76.64;99643.94;5065844;28;20653;-63
2020/12/31 09:04:09;;;;;;;12.30;8.83;;;;;;;2.78;76.22;99646.50;5066453;28;20205;-65
2020/12/31 09:06:36;;;;;;;9.37;8.13;;;;;;;2.79;76.65;99643.81;5054259;28;20212;-64
2020/12/31 09:09:03;;;;;;;8.23;7.07;;;;;;;2.82;76.45;99652.50;5059505;28;20205;-65
2020/12/31 09:11:30;;;;;;;12.03;8.57;;;;;;;2.83;77.08;99654.19;5055472;28;20255;-64
2020/12/31 09:14:07;;;;;;;11.83;8.77;;;;;;;2.86;76.49;99654.06;5058456;28;20206;-65
2020/12/31 09:16:34;;;;;;;9.93;8.53;;;;;;;2.86;76.80;99652.28;5057208;28;20683;-64
2020/12/31 09:19:02;;;;;;;12.27;8.47;;;;;;;2.89;76.42;99656.50;5059966;28;20204;-65
2020/12/31 09:21:29;;;;;;;10.77;8.07;;;;;;;2.91;76.46;99652.88;5056326;28;20560;-64
2020/12/31 09:23:55;;;;;;;10.77;8.37;;;;;;;2.92;76.62;99656.38;5057089;28;20678;-65
2020/12/31 09:26:26;;;;;;;8.90;7.37;;;;;;;2.93;76.18;99653.66;5076137;28;20212;-65
2020/12/31 09:28:52;;;;;;;9.40;7.33;;;;;;;2.95;76.66;99651.81;5073108;28;20661;-66
2020/12/31 09:31:22;;;;;;;10.40;6.87;;;;;;;2.97;75.85;99651.75;5071217;28;20209;-65
2020/12/31 09:33:50;;;;;;;10.83;7.10;;;;;;;3.00;76.60;99656.88;5063490;28;20207;-64
2020/12/31 09:36:23;;;;;;;9.93;7.70;;;;;;;3.02;76.57;99647.13;5061266;28;20217;-65
2020/12/31 09:38:49;;;;;;;9.90;8.40;;;;;;;3.05;75.76;99655.69;5065559;28;20198;-65
2020/12/31 09:41:16;;;;;;;10.63;8.93;;;;;;;3.09;76.19;99651.16;5064386;28;20675;-63
2020/12/31 09:43:42;;;;;;;9.93;8.77;;;;;;;3.10;76.17;99652.84;5057211;28;20704;-65
2020/12/31 09:46:08;;;;;;;9.07;7.23;;;;;;;3.13;75.61;99663.22;5081429;28;20685;-65
2020/12/31 09:48:35;;;;;;;9.07;7.33;;;;;;;3.16;75.84;99656.97;5074167;28;20219;-64
2020/12/31 09:51:02;;;;;;;13.63;8.97;;;;;;;3.17;76.30;99656.91;5074628;28;20327;-64
2020/12/31 09:53:28;;;;;;;11.13;8.53;;;;;;;3.21;76.33;99655.81;5072934;28;22005;-64
2020/12/31 09:55:54;;;;;;;11.80;8.33;;;;;;;3.23;75.83;99651.31;5078921;28;20229;-64
2020/12/31 09:58:20;;;;;;;11.30;8.70;;;;;;;3.25;75.54;99653.88;5062487;28;20604;-64
2020/12/31 10:00:46;;;;;;;8.43;6.77;;;;;;;3.25;76.04;99654.72;5057883;28;20233;-65
2020/12/31 10:03:12;;;;;;;8.27;6.87;;;;;;;3.30;75.99;99652.72;5057417;28;20654;-64
2020/12/31 10:05:38;;;;;;;11.83;8.57;;;;;;;3.29;75.92;99647.53;5060546;28;20197;-64
2020/12/31 10:08:05;;;;;;;11.37;8.03;;;;;;;3.33;75.88;99651.72;5061293;28;20577;-65
2020/12/31 10:10:31;;;;;;;9.90;6.97;;;;;;;3.34;75.25;99653.44;5058090;28;20236;-64
2020/12/31 10:12:57;;;;;;;10.83;7.90;;;;;;;3.38;75.74;99658.47;5063919;28;20205;-66
2020/12/31 10:15:23;;;;;;;9.37;7.30;;;;;;;3.40;75.51;99655.78;5070059;28;20229;-65
2020/12/31 10:17:49;;;;;;;10.13;8.30;;;;;;;3.41;75.26;99650.41;5070356;28;20205;-64
2020/12/31 10:20:15;;;;;;;8.10;7.23;;;;;;;3.43;74.61;99653.81;5069584;28;20224;-65
2020/12/31 10:22:41;;;;;;;13.80;6.87;;;;;;;3.45;75.24;99651.09;5069257;28;20201;-65
2020/12/31 10:25:08;;;;;;;10.37;8.40;;;;;;;3.48;75.21;99646.53;5070402;28;20193;-65
2020/12/31 10:27:35;;;;;;;9.93;7.33;;;;;;;3.51;75.49;99644.69;5062695;28;20580;-65
2020/12/31 10:30:01;;;;;;;7.30;6.17;;;;;;;3.53;74.94;99637.56;5069427;28;20327;-65
2020/12/31 10:32:27;;;;;;;9.90;7.20;;;;;;;3.54;75.13;99647.19;5085523;22;20238;-66
2020/12/31 10:34:53;;;;;;;7.90;5.93;;;;;;;3.53;75.27;99638.44;5090477;28;20253;-65
2020/12/31 10:37:19;;;;;;;6.60;5.90;;;;;;;3.57;74.97;99633.88;5089734;28;20200;-66
2020/12/31 10:39:45;;;;;;;8.13;5.50;;;;;;;3.57;74.98;99636.50;5089203;28;20205;-66
2020/12/31 10:42:12;;;;;;;6.27;5.13;;;;;;;3.56;74.04;99633.00;5084071;28;20573;-65
2020/12/31 10:44:38;;;;;;;9.87;6.47;;;;;;;3.58;74.09;99635.56;5062296;28;20201;-67
2020/12/31 10:47:04;;;;;;;6.97;5.17;;;;;;;3.60;74.52;99634.53;5060353;28;20201;-66
2020/12/31 10:49:30;;;;;;;8.00;6.57;;;;;;;3.62;74.60;99623.94;5056643;28;20209;-65
2020/12/31 10:51:56;;;;;;;9.37;5.90;;;;;;;3.62;73.84;99627.41;5064667;28;20646;-66
2020/12/31 10:54:22;;;;;;;8.90;6.77;;;;;;;3.64;74.63;99619.44;5067090;28;20198;-65
2020/12/31 10:56:48;;;;;;;5.57;4.37;;;;;;;3.66;74.58;99621.06;5065602;28;20200;-66
2020/12/31 10:59:15;;;;;;;9.97;6.33;;;;;;;3.68;74.13;99621.00;5068748;28;20208;-66
2020/12/31 11:01:41;;;;;;;5.60;5.00;;;;;;;3.70;74.32;99620.00;5066903;28;20235;-64
2020/12/31 11:04:07;;;;;;;7.07;4.10;;;;;;;3.73;73.79;99617.19;5069548;28;20211;-66
2020/12/31 11:06:34;;;;;;;10.10;5.47;;;;;;;3.75;73.83;99611.84;5069356;28;20660;-66
2020/12/31 11:09:00;;;;;;;6.50;4.33;;;;;;;3.78;73.84;99616.94;5064382;28;20203;-63
2020/12/31 11:11:28;;;;;;;6.83;5.03;;;;;;;3.80;74.22;99618.56;5060811;28;20262;-63
2020/12/31 11:13:55;;;;;;;5.67;4.27;;;;;;;3.83;73.92;99618.41;5063844;28;20225;-65
2020/12/31 11:16:22;;;;;;;6.47;4.83;;;;;;;3.83;73.67;99614.94;5065061;28;20273;-63
2020/12/31 11:18:48;;;;;;;9.83;6.00;;;;;;;3.87;73.01;99618.25;5058838;28;20684;-64
2020/12/31 11:21:18;;;;;;;6.17;4.80;;;;;;;3.88;72.84;99610.28;5067383;28;20215;-62
2020/12/31 11:23:44;;;;;;;6.83;5.07;;;;;;;3.90;72.86;99611.06;5059363;28;20658;-66
2020/12/31 11:26:10;;;;;;;6.00;5.00;;;;;;;3.94;73.26;99603.84;5064076;28;20689;-64
2020/12/31 11:28:37;;;;;;;5.40;4.53;;;;;;;3.93;73.07;99600.34;5066864;28;20645;-65
2020/12/31 11:31:03;;;;;;;5.10;4.47;;;;;;;3.94;72.67;99602.03;5058669;28;20296;-64
2020/12/31 11:33:30;;;;;;;5.30;3.83;;;;;;;3.95;72.77;99595.84;5062326;28;20228;-65
2020/12/31 11:35:56;;;;;;;4.77;3.83;;;;;;;3.96;73.23;99594.06;5066883;28;20282;-63
2020/12/31 11:38:22;;;;;;;5.07;3.97;;;;;;;3.95;72.49;99585.28;5057815;28;20254;-66
2020/12/31 11:40:48;;;;;;;5.53;4.33;;;;;;;3.97;71.97;99588.69;5059205;28;20209;-60